sensor_id;sensor_type;location;lat;lon;timestamp;P1;durP1;ratioP1;P2;durP2;ratioP2
35646;SDS011;28680;45.642;13.756;2022-08-01T16:12:25;1.58;;;1.02;;
35646;SDS011;28680;45.642;13.756;2022-08-01T16:14:51;1.23;;;0.90;;
35646;SDS011;28680;45.642;13.756;2022-08-01T16:17:17;2.33;;;1.25;;
35646;SDS011;28680;45.642;13.756;2022-08-01T16:19:42;4.97;;;0.80;;
35646;SDS011;28680;45.642;13.756;2022-08-01T16:22:08;1.52;;;0.90;;
35646;SDS011;28680;45.642;13.756;2022-08-01T16:24:34;2.35;;;1.00;;
35646;SDS011;28680;45.642;13.756;2022-08-01T16:27:00;1.67;;;0.80;;
35646;SDS011;28680;45.642;13.756;2022-08-01T16:29:26;2.90;;;1.00;;
35646;SDS011;28680;45.642;13.756;2022-08-01T16:31:54;2.45;;;0.90;;
35646;SDS011;28680;45.642;13.756;2022-08-01T16:34:33;2.38;;;0.90;;
35646;SDS011;28680;45.642;13.756;2022-08-01T16:37:00;1.70;;;1.30;;
35646;SDS011;28680;45.642;13.756;2022-08-01T16:39:25;1.50;;;0.85;;
35646;SDS011;28680;45.642;13.756;2022-08-01T16:41:51;0.70;;;0.70;;
35646;SDS011;28680;45.642;13.756;2022-08-01T16:44:17;1.00;;;0.80;;
35646;SDS011;28680;45.642;13.756;2022-08-01T16:46:44;1.85;;;1.00;;
35646;SDS011;28680;45.642;13.756;2022-08-01T16:49:10;0.88;;;0.77;;
35646;SDS011;28680;45.642;13.756;2022-08-01T16:51:36;1.35;;;1.00;;
35646;SDS011;28680;45.642;13.756;2022-08-01T16:54:02;2.05;;;0.90;;
35646;SDS011;28680;45.642;13.756;2022-08-01T16:56:29;0.70;;;0.60;;
35646;SDS011;28680;45.642;13.756;2022-08-01T16:58:54;3.30;;;0.90;;
35646;SDS011;28680;45.642;13.756;2022-08-01T17:01:20;1.77;;;0.88;;
35646;SDS011;28680;45.642;13.756;2022-08-01T17:03:48;0.70;;;0.70;;
35646;SDS011;28680;45.642;13.756;2022-08-01T17:06:14;2.28;;;0.95;;
35646;SDS011;28680;45.642;13.756;2022-08-01T17:08:40;0.85;;;0.80;;
35646;SDS011;28680;45.642;13.756;2022-08-01T17:11:06;2.28;;;1.05;;
35646;SDS011;28680;45.642;13.756;2022-08-01T17:13:32;1.42;;;0.73;;
35646;SDS011;28680;45.642;13.756;2022-08-01T17:15:58;1.25;;;0.93;;
35646;SDS011;28680;45.642;13.756;2022-08-01T17:18:25;1.85;;;1.00;;
35646;SDS011;28680;45.642;13.756;2022-08-01T17:20:51;1.45;;;0.73;;
35646;SDS011;28680;45.642;13.756;2022-08-01T17:23:16;3.92;;;1.10;;
35646;SDS011;28680;45.642;13.756;2022-08-01T17:25:43;3.42;;;1.10;;
35646;SDS011;28680;45.642;13.756;2022-08-01T17:28:09;3.10;;;1.17;;
35646;SDS011;28680;45.642;13.756;2022-08-01T17:30:36;1.92;;;1.10;;
35646;SDS011;28680;45.642;13.756;2022-08-01T17:33:05;1.63;;;0.70;;
35646;SDS011;28680;45.642;13.756;2022-08-01T17:35:31;1.42;;;0.90;;
35646;SDS011;28680;45.642;13.756;2022-08-01T17:37:57;2.47;;;1.20;;
35646;SDS011;28680;45.642;13.756;2022-08-01T17:40:23;5.68;;;1.88;;
35646;SDS011;28680;45.642;13.756;2022-08-01T17:42:49;2.10;;;1.55;;
35646;SDS011;28680;45.642;13.756;2022-08-01T17:45:15;2.95;;;1.70;;
35646;SDS011;28680;45.642;13.756;2022-08-01T17:47:41;2.20;;;1.20;;
35646;SDS011;28680;45.642;13.756;2022-08-01T17:50:08;1.92;;;1.38;;
35646;SDS011;28680;45.642;13.756;2022-08-01T17:52:36;1.95;;;1.13;;
35646;SDS011;28680;45.642;13.756;2022-08-01T17:55:03;1.67;;;1.20;;
35646;SDS011;28680;45.642;13.756;2022-08-01T17:57:29;2.55;;;1.00;;
35646;SDS011;28680;45.642;13.756;2022-08-01T17:59:56;1.85;;;1.10;;
35646;SDS011;28680;45.642;13.756;2022-08-01T18:02:23;1.02;;;0.93;;
35646;SDS011;28680;45.642;13.756;2022-08-01T18:04:50;2.53;;;1.23;;
35646;SDS011;28680;45.642;13.756;2022-08-01T18:07:17;2.58;;;1.10;;
35646;SDS011;28680;45.642;13.756;2022-08-01T18:09:44;3.33;;;0.95;;
35646;SDS011;28680;45.642;13.756;2022-08-01T18:12:19;2.60;;;0.90;;
35646;SDS011;28680;45.642;13.756;2022-08-01T18:14:48;1.25;;;0.80;;
35646;SDS011;28680;45.642;13.756;2022-08-01T18:17:14;1.75;;;0.98;;
35646;SDS011;28680;45.642;13.756;2022-08-01T18:19:40;2.63;;;2.42;;
35646;SDS011;28680;45.642;13.756;2022-08-01T18:22:06;1.85;;;1.30;;
35646;SDS011;28680;45.642;13.756;2022-08-01T18:24:32;1.15;;;0.90;;
35646;SDS011;28680;45.642;13.756;2022-08-01T18:26:58;2.88;;;1.00;;
35646;SDS011;28680;45.642;13.756;2022-08-01T18:29:24;2.53;;;1.05;;
35646;SDS011;28680;45.642;13.756;2022-08-01T18:31:50;1.33;;;0.88;;
35646;SDS011;28680;45.642;13.756;2022-08-01T18:34:16;1.60;;;1.17;;
35646;SDS011;28680;45.642;13.756;2022-08-01T18:36:43;1.77;;;0.95;;
35646;SDS011;28680;45.642;13.756;2022-08-01T18:39:09;1.90;;;1.10;;
35646;SDS011;28680;45.642;13.756;2022-08-01T18:41:36;1.42;;;0.98;;
35646;SDS011;28680;45.642;13.756;2022-08-01T18:44:03;2.42;;;0.90;;
35646;SDS011;28680;45.642;13.756;2022-08-01T18:46:30;2.03;;;1.02;;
35646;SDS011;28680;45.642;13.756;2022-08-01T18:48:56;2.08;;;1.08;;
35646;SDS011;28680;45.642;13.756;2022-08-01T18:51:22;3.35;;;1.00;;
35646;SDS011;28680;45.642;13.756;2022-08-01T18:53:49;4.43;;;1.25;;
35646;SDS011;28680;45.642;13.756;2022-08-01T18:56:16;1.10;;;1.00;;
35646;SDS011;28680;45.642;13.756;2022-08-01T18:58:42;4.63;;;1.10;;
35646;SDS011;28680;45.642;13.756;2022-08-01T19:01:08;1.85;;;0.90;;
35646;SDS011;28680;45.642;13.756;2022-08-01T19:03:35;2.35;;;1.17;;
35646;SDS011;28680;45.642;13.756;2022-08-01T19:06:01;1.20;;;0.85;;
35646;SDS011;28680;45.642;13.756;2022-08-01T19:08:31;2.17;;;1.05;;
35646;SDS011;28680;45.642;13.756;2022-08-01T19:10:57;1.92;;;1.27;;
35646;SDS011;28680;45.642;13.756;2022-08-01T19:13:24;1.88;;;1.15;;
35646;SDS011;28680;45.642;13.756;2022-08-01T19:15:53;2.35;;;1.30;;
35646;SDS011;28680;45.642;13.756;2022-08-01T19:18:19;8.35;;;1.30;;
35646;SDS011;28680;45.642;13.756;2022-08-01T19:20:45;2.90;;;1.63;;
35646;SDS011;28680;45.642;13.756;2022-08-01T19:23:11;2.00;;;1.00;;
35646;SDS011;28680;45.642;13.756;2022-08-01T19:25:56;1.70;;;1.27;;
35646;SDS011;28680;45.642;13.756;2022-08-01T19:28:24;1.50;;;1.00;;
35646;SDS011;28680;45.642;13.756;2022-08-01T19:30:52;2.00;;;1.25;;
35646;SDS011;28680;45.642;13.756;2022-08-01T19:33:20;4.35;;;1.15;;
35646;SDS011;28680;45.642;13.756;2022-08-01T19:35:46;2.95;;;1.42;;
35646;SDS011;28680;45.642;13.756;2022-08-01T19:38:24;2.75;;;1.15;;
35646;SDS011;28680;45.642;13.756;2022-08-01T19:40:53;1.23;;;1.00;;
35646;SDS011;28680;45.642;13.756;2022-08-01T19:43:20;2.83;;;1.50;;
35646;SDS011;28680;45.642;13.756;2022-08-01T19:45:48;3.15;;;1.40;;
35646;SDS011;28680;45.642;13.756;2022-08-01T19:48:14;3.72;;;1.48;;
35646;SDS011;28680;45.642;13.756;2022-08-01T19:50:43;1.98;;;1.38;;
35646;SDS011;28680;45.642;13.756;2022-08-01T19:53:12;2.38;;;1.35;;
35646;SDS011;28680;45.642;13.756;2022-08-01T19:55:42;3.13;;;1.48;;
35646;SDS011;28680;45.642;13.756;2022-08-01T19:58:09;3.05;;;1.40;;
35646;SDS011;28680;45.642;13.756;2022-08-01T20:00:36;3.88;;;1.50;;
35646;SDS011;28680;45.642;13.756;2022-08-01T20:03:03;3.00;;;1.63;;
35646;SDS011;28680;45.642;13.756;2022-08-01T20:05:31;2.30;;;1.63;;
35646;SDS011;28680;45.642;13.756;2022-08-01T20:07:58;2.60;;;1.25;;
35646;SDS011;28680;45.642;13.756;2022-08-01T20:10:24;3.10;;;1.50;;
35646;SDS011;28680;45.642;13.756;2022-08-01T20:12:50;3.65;;;1.50;;
35646;SDS011;28680;45.642;13.756;2022-08-01T20:15:20;5.13;;;1.73;;
35646;SDS011;28680;45.642;13.756;2022-08-01T20:17:46;1.70;;;1.40;;
35646;SDS011;28680;45.642;13.756;2022-08-01T20:20:16;4.68;;;1.95;;
35646;SDS011;28680;45.642;13.756;2022-08-01T20:22:41;3.53;;;1.67;;
35646;SDS011;28680;45.642;13.756;2022-08-01T20:25:10;3.88;;;1.42;;
35646;SDS011;28680;45.642;13.756;2022-08-01T20:27:37;6.03;;;1.58;;
35646;SDS011;28680;45.642;13.756;2022-08-01T20:30:04;5.45;;;1.85;;
35646;SDS011;28680;45.642;13.756;2022-08-01T20:32:31;8.20;;;1.85;;
35646;SDS011;28680;45.642;13.756;2022-08-01T20:35:01;3.15;;;1.95;;
35646;SDS011;28680;45.642;13.756;2022-08-01T20:37:29;5.88;;;1.90;;
35646;SDS011;28680;45.642;13.756;2022-08-01T20:40:04;2.42;;;1.73;;
35646;SDS011;28680;45.642;13.756;2022-08-01T20:42:31;2.90;;;1.73;;
35646;SDS011;28680;45.642;13.756;2022-08-01T20:45:01;3.60;;;1.80;;
35646;SDS011;28680;45.642;13.756;2022-08-01T20:47:30;4.30;;;1.65;;
35646;SDS011;28680;45.642;13.756;2022-08-01T20:49:59;3.70;;;1.80;;
35646;SDS011;28680;45.642;13.756;2022-08-01T20:52:47;5.80;;;1.75;;
35646;SDS011;28680;45.642;13.756;2022-08-01T20:55:14;3.65;;;1.90;;
35646;SDS011;28680;45.642;13.756;2022-08-01T20:57:41;3.70;;;1.80;;
35646;SDS011;28680;45.642;13.756;2022-08-01T21:00:12;3.65;;;1.60;;
35646;SDS011;28680;45.642;13.756;2022-08-01T21:02:45;2.05;;;1.40;;
35646;SDS011;28680;45.642;13.756;2022-08-01T21:05:46;4.03;;;1.77;;
35646;SDS011;28680;45.642;13.756;2022-08-01T21:08:34;5.13;;;1.75;;
35646;SDS011;28680;45.642;13.756;2022-08-01T21:11:10;3.05;;;1.60;;
35646;SDS011;28680;45.642;13.756;2022-08-01T21:13:44;2.28;;;1.50;;
35646;SDS011;28680;45.642;13.756;2022-08-01T21:16:12;2.88;;;1.50;;
35646;SDS011;28680;45.642;13.756;2022-08-01T21:21:36;2.35;;;1.35;;
35646;SDS011;28680;45.642;13.756;2022-08-01T21:24:17;4.82;;;2.08;;
35646;SDS011;28680;45.642;13.756;2022-08-01T21:29:13;6.10;;;1.85;;
35646;SDS011;28680;45.642;13.756;2022-08-01T21:31:41;2.20;;;1.60;;
35646;SDS011;28680;45.642;13.756;2022-08-01T21:34:09;2.17;;;1.27;;
35646;SDS011;28680;45.642;13.756;2022-08-01T21:36:36;4.05;;;1.30;;
35646;SDS011;28680;45.642;13.756;2022-08-01T21:39:03;3.10;;;1.48;;
35646;SDS011;28680;45.642;13.756;2022-08-01T21:41:48;3.92;;;1.60;;
35646;SDS011;28680;45.642;13.756;2022-08-01T21:44:14;3.92;;;1.70;;
35646;SDS011;28680;45.642;13.756;2022-08-01T21:46:41;3.92;;;1.80;;
35646;SDS011;28680;45.642;13.756;2022-08-01T21:49:08;3.45;;;1.60;;
35646;SDS011;28680;45.642;13.756;2022-08-01T21:51:42;1.75;;;1.48;;
35646;SDS011;28680;45.642;13.756;2022-08-01T21:57:16;1.70;;;1.30;;
35646;SDS011;28680;45.642;13.756;2022-08-01T22:00:25;2.28;;;1.40;;
35646;SDS011;28680;45.642;13.756;2022-08-01T22:05:50;2.72;;;1.30;;
35646;SDS011;28680;45.642;13.756;2022-08-01T22:08:29;1.58;;;1.40;;
35646;SDS011;28680;45.642;13.756;2022-08-01T22:11:05;2.75;;;1.33;;
35646;SDS011;28680;45.642;13.756;2022-08-01T22:13:33;1.45;;;1.25;;
35646;SDS011;28680;45.642;13.756;2022-08-01T22:15:59;1.60;;;1.25;;
35646;SDS011;28680;45.642;13.756;2022-08-01T22:18:32;3.58;;;1.25;;
35646;SDS011;28680;45.642;13.756;2022-08-01T22:21:00;2.60;;;1.40;;
35646;SDS011;28680;45.642;13.756;2022-08-01T22:23:27;1.90;;;1.40;;
35646;SDS011;28680;45.642;13.756;2022-08-01T22:25:54;1.55;;;1.25;;
35646;SDS011;28680;45.642;13.756;2022-08-01T22:28:20;1.40;;;1.10;;
35646;SDS011;28680;45.642;13.756;2022-08-01T22:30:50;3.58;;;1.40;;
35646;SDS011;28680;45.642;13.756;2022-08-01T22:33:16;2.42;;;1.40;;
35646;SDS011;28680;45.642;13.756;2022-08-01T22:35:44;2.05;;;1.30;;
35646;SDS011;28680;45.642;13.756;2022-08-01T22:38:15;1.60;;;1.17;;
35646;SDS011;28680;45.642;13.756;2022-08-01T22:40:44;4.00;;;1.45;;
35646;SDS011;28680;45.642;13.756;2022-08-01T22:45:58;2.55;;;1.40;;
35646;SDS011;28680;45.642;13.756;2022-08-01T22:48:45;4.35;;;1.27;;
35646;SDS011;28680;45.642;13.756;2022-08-01T22:51:24;1.20;;;1.00;;
35646;SDS011;28680;45.642;13.756;2022-08-01T22:54:05;2.72;;;1.15;;
35646;SDS011;28680;45.642;13.756;2022-08-01T22:56:36;1.60;;;1.27;;
35646;SDS011;28680;45.642;13.756;2022-08-01T22:59:12;2.40;;;1.10;;
35646;SDS011;28680;45.642;13.756;2022-08-01T23:02:06;2.63;;;1.30;;
35646;SDS011;28680;45.642;13.756;2022-08-01T23:04:38;4.88;;;1.48;;
35646;SDS011;28680;45.642;13.756;2022-08-01T23:07:10;1.90;;;1.30;;
35646;SDS011;28680;45.642;13.756;2022-08-01T23:09:39;2.28;;;1.20;;
35646;SDS011;28680;45.642;13.756;2022-08-01T23:12:06;1.80;;;1.13;;
35646;SDS011;28680;45.642;13.756;2022-08-01T23:14:33;2.25;;;1.10;;
35646;SDS011;28680;45.642;13.756;2022-08-01T23:16:59;2.88;;;1.27;;
35646;SDS011;28680;45.642;13.756;2022-08-01T23:19:32;2.70;;;1.30;;
35646;SDS011;28680;45.642;13.756;2022-08-01T23:22:01;2.55;;;1.50;;
35646;SDS011;28680;45.642;13.756;2022-08-01T23:24:28;1.60;;;1.20;;
35646;SDS011;28680;45.642;13.756;2022-08-01T23:26:56;2.28;;;1.10;;
35646;SDS011;28680;45.642;13.756;2022-08-01T23:29:44;2.45;;;1.33;;
35646;SDS011;28680;45.642;13.756;2022-08-01T23:32:13;1.55;;;1.30;;
35646;SDS011;28680;45.642;13.756;2022-08-01T23:34:42;1.45;;;1.20;;
35646;SDS011;28680;45.642;13.756;2022-08-01T23:37:09;6.00;;;1.50;;
35646;SDS011;28680;45.642;13.756;2022-08-01T23:39:36;2.10;;;1.20;;
35646;SDS011;28680;45.642;13.756;2022-08-01T23:42:03;1.55;;;1.23;;
35646;SDS011;28680;45.642;13.756;2022-08-01T23:44:29;2.08;;;1.50;;
35646;SDS011;28680;45.642;13.756;2022-08-01T23:46:55;3.40;;;1.55;;
35646;SDS011;28680;45.642;13.756;2022-08-01T23:49:22;4.13;;;1.67;;
35646;SDS011;28680;45.642;13.756;2022-08-01T23:51:48;1.95;;;1.40;;
35646;SDS011;28680;45.642;13.756;2022-08-01T23:54:15;2.10;;;1.40;;
35646;SDS011;28680;45.642;13.756;2022-08-01T23:56:41;3.47;;;1.40;;
35646;SDS011;28680;45.642;13.756;2022-08-01T23:59:07;2.38;;;1.45;;
